Hualapai Flat, Nevada Weather observations

Data are for 10 minute period ending at time listed.
 Day   Time   Solar   Ave.   Ave.  Ave.  Vector  Max.   Baro.   Total    
  of    of     Rad.   Air    Rel.  Wind   Wind   Wind  Press.  Precip.   
Year   Day            Temp.  Hum.  Speed  Dir.   Gust                    
2016   (PST)  Kw/m2    F      %     mph   deg.    mph    mb.     in.     
-------------------------------------------------------------------------
 144    3:30   0.00   34.9    74    3.2   239     4.5   873.0    0.00 
 144    3:40   0.00   34.8    74    1.5   346     3.1   873.0    0.00 
 144    3:50   0.00   35.9    74    0.4    46     2.0   873.0    0.00 
 144    4:00   0.00   36.2    74    4.5   290     7.0   873.0    0.00 
 144    4:10   0.00   35.0    76    6.3   292     7.3   872.9    0.00 
 144    4:20   0.00   34.8    76    5.3   312     6.6   872.9    0.00 
 144    4:30   0.00   34.9    75    3.9   346     6.2   873.0    0.00 
 144    4:40   0.01   35.7    76    6.3   301     9.4   872.9    0.00 
 144    4:50   0.01   36.7    74    5.5   315     8.0   873.0    0.00 
 144    5:00   0.03   36.7    73    5.3   309     6.9   872.9    0.00 
 144    5:10   0.06   36.6    73    5.4   302     6.4   872.9    0.00 
 144    5:20   0.08   36.9    73    3.2   336     5.1   872.9    0.00 
 144    5:30   0.12   38.1    74    1.8   339     3.4   872.9    0.00 
 144    5:40   0.15   40.3    72    2.9   322     3.6   872.9    0.00 
 144    5:50   0.18   41.7    68    2.9    28     4.2   872.9    0.00 
 144    6:00   0.22   43.5    68    0.6    62     3.4   873.0    0.00 
 144    6:10   0.25   47.9    64    0.0     0     0.0   873.0    0.00 
 144    6:20   0.28   50.8    60    0.2   136     1.8   872.9    0.00 
 144    6:30   0.31   52.2    55    3.6   180     5.1   872.9    0.00 
 144    6:40   0.35   52.3    52    2.8   170     3.9   873.0    0.00 
 144    6:50   0.38   50.3    51    3.0   144     4.8   873.0    0.00 
 144    7:00   0.41   50.5    51    3.4   163     5.6   872.9    0.00 
 144    7:10   0.44   52.3    50    2.5   187     6.1   873.0    0.00 
 144    7:20   0.48   51.2    49    3.6   120     6.0   873.0    0.00 
 144    7:30   0.51   51.4    50    2.3   117     5.6   873.0    0.00 
 144    7:40   0.54   51.7    49    2.9   108     5.6   873.0    0.00 
 144    7:50   0.57   53.8    48    1.8   151     5.5   873.0    0.00 
 144    8:00   0.60   53.7    46    2.3    86     6.0   873.0    0.00 
 144    8:10   0.63   53.0    46    5.2    98     8.6   873.0    0.00 
 144    8:20   0.66   53.4    45    4.7    93     9.1   873.0    0.00 
 144    8:30   0.69   53.9    45    4.6   128    11.2   873.0    0.00 
 144    8:40   0.72   56.3    42    5.7   170    11.3   873.0    0.00 
 144    8:50   0.75   56.0    41    6.0   116    10.0   873.0    0.00 
 144    9:00   0.83   55.3    41    6.4   106    11.0   873.0    0.00 
 144    9:10   0.86   56.1    40    5.2   130    13.4   872.9    0.00 
 144    9:20   1.04   58.2    39    6.0   173    13.9   872.8    0.00 
 144    9:30   0.50   60.7    35    4.9   190     9.6   872.7    0.00 
 144    9:40   0.88   59.2    35    6.5   135    12.2   872.6    0.00 
 144    9:50   0.68   58.6    36    6.6   157    13.7   872.5    0.00 
 144   10:00   0.40   56.6    37    3.0   358     6.4   872.5    0.00 
 144   10:10   0.43   55.9    39    2.3    87     5.0   872.5    0.00 
 144   10:20   0.46   56.4    39    2.0   106     6.1   872.4    0.00 
 144   10:30   0.62   58.4    37    3.0    41    11.6   872.4    0.00 
 144   10:40   0.37   59.8    35    2.9   258     6.1   872.4    0.00 
 144   10:50   0.36   57.5    36    4.4   326     8.5   872.3    0.00 
 144   11:00   0.33   57.2    37    3.9   268    10.8   872.1    0.00 
 144   11:10   0.52   58.3    36    5.0   256    10.9   872.1    0.00 
 144   11:20   0.28   58.2    34    2.4   256     6.1   872.0    0.00 
 144   11:30   0.20   59.0    33    4.8    22     8.3   871.9    0.00 
 144   11:40   0.33   58.4    34    2.9    10     8.0   871.8    0.00 
 144   11:50   0.36   59.0    34    2.8   309     8.3   871.8    0.00 
 144   12:00   0.43   60.5    32    3.0   289     9.1   871.7    0.00 
 144   12:10   0.42   60.3    31    3.1   185     7.9   871.7    0.00 
 144   12:20   0.43   60.0    31    2.5   329     7.3   871.6    0.00 
 144   12:30   0.38   59.3    31    2.7   317     5.6   871.5    0.00 
 144   12:40   0.36   60.1    32    2.2   207     7.6   871.4    0.00 
 144   12:50   0.40   60.2    30    3.1   314     8.8   871.3    0.00 
 144   13:00   0.38   60.0    32    6.8   221    12.4   871.2    0.00 
 144   13:10   0.37   60.5    31    5.7   218    10.4   871.2    0.00 
 144   13:20   0.46   62.1    31    5.2   184     8.6   871.2    0.00 
 144   13:30   0.41   61.4    28    3.0   292     9.1   871.1    0.00 
 144   13:40   0.32   60.1    29    2.8   338     6.4   871.1    0.00 
 144   13:50   0.24   59.9    30    2.4   295     6.3   871.1    0.00 
 144   14:00   0.24   60.1    29    4.4   261    12.4   871.1    0.00 
 144   14:10   0.24   59.5    30    5.8   296    12.9   871.1    0.00 
 144   14:20   0.26   59.5    30    7.1   333    11.2   871.0    0.00 
 144   14:30   0.32   60.0    30    7.2     3    10.7   871.0    0.00 
 144   14:40   0.37   61.2    29    4.1   350     8.9   870.9    0.00 
 144   14:50   0.41   61.6    28    7.0   321    10.7   870.8    0.00 
 144   15:00   0.40   60.8    28    5.5   318    10.3   870.7    0.00 
 144   15:10   0.76   62.1    27    6.4   315    12.0   870.7    0.00 
 144   15:20   0.65   63.9    25    5.0    57     9.5   870.5    0.00 
 144   15:30   0.69   64.8    26    4.6   228    10.9   870.4    0.00 
 144   15:40   0.39   64.3    25    4.1   305     8.6   870.3    0.00 
 144   15:50   0.25   62.2    27    6.5   279    11.2   870.2    0.00 
 144   16:00   0.22   62.0    27    5.0   293     9.3   870.1    0.00 
 144   16:10   0.08   62.2    27    3.2   244     7.3   870.0    0.00 
 144   16:20   0.27   61.5    28    6.2   277    13.1   870.0    0.00 
 144   16:30   0.06   63.7    26    4.0   334    12.8   869.9    0.00 
 144   16:40   0.01   63.8    24   10.9   299    15.3   869.8    0.00 
 144   16:50   0.12   62.7    25   11.6   308    16.9   869.8    0.00 
 144   17:00   0.18   61.3    27    8.3   300    11.4   869.8    0.00 
 144   17:10   0.14   60.7    28    5.4   277     9.6   869.8    0.00 
 144   17:20   0.17   61.3    26    3.3   352     9.3   869.6    0.00 
 144   17:30   0.03   62.9    23    5.8     2    10.1   869.5    0.00 
 144   17:40   0.09   61.4    24    4.9   321     8.1   869.5    0.00 
 144   17:50   0.07   60.0    26    6.4   298    10.2   869.5    0.00 
 144   18:00   0.05   59.4    27    4.7   315     6.7   869.5    0.00 
 144   18:10   0.06   58.9    27    5.2   317     8.0   869.5    0.00 
 144   18:20   0.05   59.2    25    5.0   315     7.7   869.5    0.00 
 144   18:30   0.04   58.7    27    5.3   314     7.5   869.5    0.00 
 144   18:40   0.03   58.1    28    5.2   313     7.3   869.5    0.00 
 144   18:50   0.02   57.7    30    6.7   308    11.8   869.6    0.00 
 144   19:00   0.02   57.3    32    7.0   300     9.6   869.6    0.00 
 144   19:10   0.01   56.5    33    7.2   294     9.7   869.6    0.00 
 144   19:20   0.00   56.6    36   10.1   317    15.3   869.7    0.00 
 144   19:30   0.00   56.4    36    9.6   316    13.7   869.8    0.00 
 144   19:40   0.00   56.0    37    9.9   313    14.1   869.9    0.00 
 144   19:50   0.00   55.6    39    9.5   316    12.9   870.0    0.00 
 144   20:00   0.00   55.0    41    9.7   326    13.7   870.1    0.00 
 144   20:10   0.00   53.5    44    7.0   344    10.5   870.3    0.00 
 144   20:20   0.00   52.0    46    6.1   335     9.3   870.4    0.00 
 144   20:30   0.00   51.5    47    6.2   328     8.3   870.5    0.00 
 144   20:40   0.00   51.4    47    7.1   323    10.1   870.5    0.00 
 144   20:50   0.00   52.2    45    8.8   317    13.8   870.5    0.00 
 144   21:00   0.00   53.1    45    8.9   322    14.5   870.5    0.00 
 144   21:10   0.00   52.8    46    7.4   327    11.6   870.5    0.00 
 144   21:20   0.00   52.7    48    7.3   335    10.5   870.6    0.00 
 144   21:30   0.00   52.6    48    8.6   335    13.2   870.6    0.00 
 144   21:40   0.00   52.7    48    8.4   332    14.5   870.6    0.00 
 144   21:50   0.00   52.8    47    9.3   328    14.1   870.6    0.00 
 144   22:00   0.00   52.4    48    7.2   326    11.3   870.6    0.00 
 144   22:10   0.00   52.1    49    7.9   328    11.4   870.6    0.00 
 144   22:20   0.00   52.2    49    8.5   326    12.1   870.5    0.00 
 144   22:30   0.00   51.4    50    7.0   332    10.0   870.5    0.00 
 144   22:40   0.00   50.9    51    7.6   327    11.5   870.5    0.00 
 144   22:50   0.00   50.6    52    7.1   329    11.0   870.5    0.00 
 144   23:00   0.00   50.8    52    7.6   318    11.8   870.5    0.00 
 144   23:10   0.00   51.2    51    7.8   313    10.9   870.5    0.00 
 144   23:20   0.00   50.8    51    7.6   318    11.8   870.5    0.00 
 144   23:30   0.00   50.9    50    7.1   312    11.4   870.5    0.00 
 144   23:40   0.00   49.6    52    4.6   326     5.7   870.6    0.00 
 144   23:50   0.00   49.3    53    5.0   318     7.7   870.5    0.00 
 145    0:00   0.00   49.0    53    4.5   324     7.0   870.5    0.00 
 145    0:10   0.00   48.9    53    4.8   325     6.3   870.4    0.00 
 145    0:20   0.00   47.4    56    6.3   299     7.6   870.2    0.00 
 145    0:30   0.00   46.1    59    6.4   299     7.7   870.1    0.00 
 145    0:40   0.00   45.7    59    5.7   311     7.1   870.1    0.00 
 145    0:50   0.00   46.4    59    5.7   314     8.1   870.1    0.00 
 145    1:00   0.00   46.1    58    7.2   305     8.6   870.1    0.00 
 145    1:10   0.00   46.3    58    7.6   303     9.8   870.0    0.00 
 145    1:20   0.00   46.8    57    7.1   307    10.3   870.0    0.00 
 145    1:30   0.00   46.4    57    7.3   305     9.6   870.0    0.00 
 145    1:40   0.00   46.7    58    8.2   313    11.5   870.0    0.00 
 145    1:50   0.00   47.7    56    8.4   316    11.1   870.1    0.00 
 145    2:00   0.00   47.8    56    8.8   317    13.4   870.1    0.00 
 145    2:10   0.00   47.6    57    8.4   321    11.3   870.1    0.00 
 145    2:20   0.00   47.8    58    9.2   316    12.1   870.2    0.00 
 145    2:30   0.00   47.8    58    8.4   322    12.3   870.2    0.00 
 145    2:40   0.00   47.0    59    7.6   326     9.6   870.2    0.00 
 145    2:50   0.00   46.9    60    8.5   320    11.8   870.1    0.00 
 145    3:00   0.00   47.1    59    7.9   322    11.0   870.1    0.00 
 145    3:10   0.00   47.0    58    7.8   319    10.5   870.1    0.00 
 145    3:20   0.00   46.5    59    7.5   330     9.5   870.2    0.00 

Return to Hualapai Flat graphs page.


Western Regional Climate Center,wrcc@dri.edu